createdAt,value
2018-12-11T00:02:29.857Z,97124.19
2018-12-11T00:05:01.734Z,97120.43
2018-12-11T00:07:31.726Z,97131.69
2018-12-11T00:10:01.743Z,97131.85
2018-12-11T00:12:32.252Z,97136.75
2018-12-11T00:15:02.373Z,97137.22
2018-12-11T00:17:32.318Z,97141.61
2018-12-11T00:20:02.367Z,97134.77
2018-12-11T00:22:32.373Z,97134.92
2018-12-11T00:25:02.382Z,97129.24
2018-12-11T00:27:32.361Z,97132.48
2018-12-11T00:30:02.451Z,97133.79
2018-12-11T00:32:32.449Z,97131.69
2018-12-11T00:35:02.525Z,97135.45
2018-12-11T00:37:32.606Z,97127.78
2018-12-11T00:40:02.680Z,97130.86
2018-12-11T00:42:32.710Z,97129.39
2018-12-11T00:45:02.715Z,97136.90
2018-12-11T00:47:32.680Z,97131.84
2018-12-11T00:50:02.613Z,97132.98
2018-12-11T00:52:32.518Z,97128.41
2018-12-11T00:55:02.451Z,97121.73
2018-12-11T00:57:32.640Z,97131.52
2018-12-11T01:00:02.763Z,97131.38
2018-12-11T01:02:32.749Z,97134.30
2018-12-11T01:05:02.772Z,97127.63
2018-12-11T01:07:32.765Z,97136.40
2018-12-11T01:12:50.452Z,97141.30
2018-12-11T01:15:21.663Z,97132.99
2018-12-11T01:20:20.594Z,97124.66
2018-12-11T01:22:50.548Z,97132.47
2018-12-11T01:25:20.634Z,97136.73
2018-12-11T01:27:50.546Z,97136.55
2018-12-11T01:30:20.568Z,97138.21
2018-12-11T01:32:50.580Z,97136.25
2018-12-11T01:35:20.593Z,97133.80
2018-12-11T01:37:50.518Z,97137.39
2018-12-11T01:40:20.448Z,97141.97
2018-12-11T01:42:50.433Z,97144.06
2018-12-11T01:45:20.375Z,97136.09
2018-12-11T01:47:50.366Z,97133.16
2018-12-11T01:50:20.374Z,97134.45
2018-12-11T01:52:50.498Z,97143.28
2018-12-11T01:55:20.436Z,97137.38
2018-12-11T01:57:50.416Z,97139.36
2018-12-11T02:03:08.068Z,97138.53
2018-12-11T02:05:38.017Z,97140.66
2018-12-11T02:08:08.033Z,97144.89
2018-12-11T02:10:38.036Z,97144.06
2018-12-11T02:13:08.052Z,97150.94
2018-12-11T02:15:37.963Z,97148.17
2018-12-11T02:18:08.262Z,97142.45
2018-12-11T02:23:23.737Z,97145.88
2018-12-11T02:25:53.797Z,97144.74
2018-12-11T02:28:23.790Z,97148.97
2018-12-11T02:30:54.292Z,97148.50
2018-12-11T02:33:24.431Z,97152.73
2018-12-11T02:35:54.475Z,97152.88
2018-12-11T02:38:24.669Z,97140.66
2018-12-11T02:40:54.704Z,97143.73
2018-12-11T02:43:24.785Z,97147.50
2018-12-11T02:45:54.698Z,97139.50
2018-12-11T02:48:24.992Z,97142.59
2018-12-11T02:50:54.972Z,97147.34
2018-12-11T02:53:25.287Z,97147.50
2018-12-11T02:55:55.406Z,97141.64
2018-12-11T02:58:25.481Z,97142.74
2018-12-11T03:00:55.474Z,97141.46
2018-12-11T03:03:25.570Z,97149.45
2018-12-11T03:05:55.557Z,97146.83
2018-12-11T03:08:25.581Z,97148.31
2018-12-11T03:10:55.497Z,97153.69
2018-12-11T03:13:25.527Z,97150.23
2018-12-11T03:15:55.601Z,97151.55
2018-12-11T03:18:25.652Z,97157.77
2018-12-11T03:20:55.572Z,97154.69
2018-12-11T03:23:25.734Z,97151.57
2018-12-11T03:25:55.728Z,97153.83
2018-12-11T03:28:25.633Z,97148.94
2018-12-11T03:30:55.626Z,97147.97
2018-12-11T03:33:25.838Z,97150.27
2018-12-11T03:35:55.757Z,97148.80
2018-12-11T03:38:26.558Z,97145.70
2018-12-11T03:40:56.733Z,97147.62
2018-12-11T03:43:26.694Z,97152.05
2018-12-11T03:45:56.729Z,97150.39
2018-12-11T03:48:26.835Z,97155.98
2018-12-11T03:50:56.818Z,97154.01
2018-12-11T03:53:26.844Z,97151.70
2018-12-11T03:55:57.876Z,97158.41
2018-12-11T03:58:28.026Z,97150.77
2018-12-11T04:00:58.005Z,97154.34
2018-12-11T04:03:28.364Z,97154.17
2018-12-11T04:05:58.278Z,97153.21
2018-12-11T04:08:28.434Z,97151.40
2018-12-11T04:10:58.344Z,97147.48
2018-12-11T04:13:28.465Z,97151.39
2018-12-11T04:15:58.398Z,97154.33
2018-12-11T04:18:28.449Z,97149.10
2018-12-11T04:20:58.404Z,97153.71
2018-12-11T04:23:28.547Z,97150.59
2018-12-11T04:25:58.460Z,97142.95
2018-12-11T04:28:28.756Z,97146.36
2018-12-11T04:30:58.815Z,97141.30
2018-12-11T04:33:29.052Z,97143.59
2018-12-11T04:35:58.970Z,97147.52
2018-12-11T04:38:29.052Z,97151.42
2018-12-11T04:40:58.979Z,97152.88
2018-12-11T04:43:29.141Z,97155.49
2018-12-11T04:45:59.166Z,97159.25
2018-12-11T04:48:29.227Z,97158.27
2018-12-11T04:50:59.227Z,97150.95
2018-12-11T04:53:29.131Z,97153.56
2018-12-11T04:55:59.056Z,97151.11
2018-12-11T04:58:29.246Z,97147.98
2018-12-11T05:00:59.180Z,97146.69
2018-12-11T05:03:29.351Z,97144.91
2018-12-11T05:05:59.282Z,97143.59
2018-12-11T05:08:29.270Z,97141.98
2018-12-11T05:10:59.197Z,97143.91
2018-12-11T05:13:29.313Z,97139.36
2018-12-11T05:15:59.253Z,97140.51
2018-12-11T05:18:29.317Z,97144.89
2018-12-11T05:21:00.380Z,97139.01
2018-12-11T05:26:16.052Z,97147.96
2018-12-11T05:31:46.645Z,97146.98
2018-12-11T05:34:16.555Z,97146.98
2018-12-11T05:36:46.468Z,97144.05
2018-12-11T05:39:16.493Z,97145.06
2018-12-11T05:41:46.725Z,97137.06
2018-12-11T05:44:16.686Z,97138.52
2018-12-11T05:46:46.723Z,97132.48
2018-12-11T05:49:16.672Z,97138.84
2018-12-11T05:51:46.581Z,97144.41
2018-12-11T05:54:16.657Z,97152.20
2018-12-11T05:56:46.681Z,97142.61
2018-12-11T05:59:16.595Z,97142.61
2018-12-11T06:01:46.681Z,97144.57
2018-12-11T06:04:16.709Z,97149.44
2018-12-11T06:06:46.624Z,97156.48
2018-12-11T06:09:16.594Z,97161.85
2018-12-11T06:11:46.702Z,97163.98
2018-12-11T06:14:16.676Z,97159.41
2018-12-11T06:16:46.752Z,97156.80
2018-12-11T06:19:17.830Z,97154.66
2018-12-11T06:21:47.877Z,97155.66
2018-12-11T06:24:17.812Z,97153.88
2018-12-11T06:26:47.744Z,97161.54
2018-12-11T06:29:17.664Z,97156.64
2018-12-11T06:31:47.669Z,97153.71
2018-12-11T06:34:17.584Z,97159.73
2018-12-11T06:36:48.074Z,97154.67
2018-12-11T06:39:18.076Z,97158.77
2018-12-11T06:41:48.289Z,97166.77
2018-12-11T06:44:18.213Z,97175.91
2018-12-11T06:46:48.264Z,97169.86
2018-12-11T06:49:18.172Z,97171.32
2018-12-11T06:51:48.180Z,97175.39
2018-12-11T06:54:18.085Z,97176.06
2018-12-11T06:56:47.992Z,97174.28
2018-12-11T06:59:17.920Z,97173.14
2018-12-11T07:01:47.844Z,97173.30
2018-12-11T07:04:17.819Z,97177.69
2018-12-11T07:06:47.784Z,97181.92
2018-12-11T07:09:17.757Z,97189.12
2018-12-11T07:11:47.763Z,97189.75
2018-12-11T07:14:17.677Z,97187.81
2018-12-11T07:16:47.609Z,97186.66
2018-12-11T07:19:17.557Z,97183.22
2018-12-11T07:21:47.458Z,97182.27
2018-12-11T07:24:17.452Z,97184.05
2018-12-11T07:26:47.369Z,97178.83
2018-12-11T07:29:17.285Z,97173.93
2018-12-11T07:31:47.256Z,97176.89
2018-12-11T07:34:17.200Z,97181.13
2018-12-11T07:36:47.296Z,97178.99
2018-12-11T07:39:17.296Z,97194.80
2018-12-11T07:41:47.322Z,97187.80
2018-12-11T07:44:17.575Z,97191.25
2018-12-11T07:46:47.509Z,97190.42
2018-12-11T07:49:17.431Z,97189.91
2018-12-11T07:51:47.358Z,97195.80
2018-12-11T07:54:17.319Z,97195.16
2018-12-11T07:56:47.240Z,97189.11
2018-12-11T07:59:17.240Z,97194.50
2018-12-11T08:01:47.233Z,97190.73
2018-12-11T08:04:17.176Z,97191.21
2018-12-11T08:06:47.426Z,97191.88
2018-12-11T08:09:17.349Z,97194.80
2018-12-11T08:11:47.362Z,97192.36
2018-12-11T08:14:17.364Z,97190.90
2018-12-11T08:16:47.281Z,97186.98
2018-12-11T08:19:17.270Z,97184.72
2018-12-11T08:21:47.289Z,97193.35
2018-12-11T08:24:17.193Z,97193.35
2018-12-11T08:26:47.156Z,97195.48
2018-12-11T08:29:17.150Z,97197.11
2018-12-11T08:31:47.157Z,97195.16
2018-12-11T08:34:17.064Z,97199.72
2018-12-11T08:36:47.140Z,97197.77
2018-12-11T08:39:25.029Z,97200.55
2018-12-11T08:41:55.018Z,97192.55
2018-12-11T08:44:25.116Z,97187.49
2018-12-11T08:46:55.142Z,97187.81
2018-12-11T08:49:25.226Z,97174.59
2018-12-11T08:51:55.161Z,97170.17
2018-12-11T08:54:25.169Z,97173.44
2018-12-11T08:56:55.090Z,97179.47
2018-12-11T08:59:25.142Z,97179.50
2018-12-11T09:01:55.193Z,97175.91
2018-12-11T09:04:25.238Z,97186.66
2018-12-11T09:06:55.216Z,97181.76
2018-12-11T09:09:25.137Z,97188.91
2018-12-11T09:11:55.156Z,97193.96
2018-12-11T09:14:25.087Z,97192.94
2018-12-11T09:16:55.045Z,97197.19
2018-12-11T09:19:24.949Z,97193.80
2018-12-11T09:21:54.884Z,97198.50
2018-12-11T09:24:24.815Z,97201.77
2018-12-11T09:26:54.843Z,97208.81
2018-12-11T09:29:24.772Z,97205.56
2018-12-11T09:31:54.706Z,97210.96
2018-12-11T09:34:24.829Z,97218.14
2018-12-11T09:36:54.851Z,97208.83
2018-12-11T09:39:24.848Z,97200.69
2018-12-11T09:41:54.813Z,97213.89
2018-12-11T09:44:24.804Z,97214.38
2018-12-11T09:46:54.713Z,97210.80
2018-12-11T09:49:24.622Z,97216.49
2018-12-11T09:51:54.580Z,97215.86
2018-12-11T09:54:24.519Z,97213.88
2018-12-11T09:56:54.456Z,97205.72
2018-12-11T09:59:24.417Z,97213.08
2018-12-11T10:01:54.782Z,97201.83
2018-12-11T10:04:24.701Z,97203.30
2018-12-11T10:06:54.681Z,97204.28
2018-12-11T10:09:24.591Z,97199.05
2018-12-11T10:11:54.722Z,97203.27
2018-12-11T10:14:24.633Z,97190.84
2018-12-11T10:16:54.596Z,97195.71
2018-12-11T10:19:24.512Z,97196.03
2018-12-11T10:21:54.613Z,97194.06
2018-12-11T10:24:25.512Z,97196.97
2018-12-11T10:26:56.631Z,97196.36
2018-12-11T10:29:26.581Z,97188.00
2018-12-11T10:31:56.619Z,97192.77
2018-12-11T10:34:26.537Z,97194.36
2018-12-11T10:36:56.449Z,97193.01
2018-12-11T10:39:26.451Z,97190.21
2018-12-11T10:41:56.393Z,97185.41
2018-12-11T10:44:26.311Z,97189.16
2018-12-11T10:46:56.284Z,97171.10
2018-12-11T10:49:27.274Z,97171.95
2018-12-11T10:51:57.607Z,97172.42
2018-12-11T10:54:27.582Z,97167.56
2018-12-11T10:56:57.491Z,97169.48
2018-12-11T10:59:27.512Z,97172.10
2018-12-11T11:04:52.460Z,97169.91
2018-12-11T11:07:22.570Z,97163.54
2018-12-11T11:09:52.501Z,97166.64
2018-12-11T11:12:22.469Z,97169.06
2018-12-11T11:14:52.538Z,97175.77
2018-12-11T11:17:22.569Z,97168.06
2018-12-11T11:19:52.490Z,97161.02
2018-12-11T11:22:23.533Z,97151.00
2018-12-11T11:24:53.468Z,97147.41
2018-12-11T11:27:23.388Z,97152.47
2018-12-11T11:29:53.381Z,97152.10
2018-12-11T11:32:23.389Z,97152.10
2018-12-11T11:34:53.301Z,97158.26
2018-12-11T11:37:23.237Z,97147.95
2018-12-11T11:39:53.149Z,97149.78
2018-12-11T11:42:23.336Z,97151.29
2018-12-11T11:44:53.733Z,97158.20
2018-12-11T11:47:23.737Z,97151.93
2018-12-11T11:49:53.665Z,97152.72
2018-12-11T11:52:23.583Z,97148.24
2018-12-11T11:54:53.599Z,97143.11
2018-12-11T11:57:29.576Z,97145.90
2018-12-11T11:59:55.429Z,97141.52
2018-12-11T12:02:25.402Z,97133.38
2018-12-11T12:04:55.389Z,97137.25
2018-12-11T12:07:25.300Z,97134.66
2018-12-11T12:09:56.411Z,97138.18
2018-12-11T12:12:26.329Z,97141.63
2018-12-11T12:14:56.289Z,97142.20
2018-12-11T12:17:26.205Z,97142.86
2018-12-11T12:19:56.122Z,97139.90
2018-12-11T12:22:26.020Z,97131.22
2018-12-11T12:24:55.960Z,97143.61
2018-12-11T12:27:25.854Z,97139.25
2018-12-11T12:29:55.784Z,97133.32
2018-12-11T12:32:26.277Z,97139.22
2018-12-11T12:34:56.184Z,97134.94
2018-12-11T12:37:26.088Z,97130.73
2018-12-11T12:39:56.024Z,97134.97
2018-12-11T12:42:25.938Z,97133.98
2018-12-11T12:44:55.941Z,97127.15
2018-12-11T12:47:26.012Z,97128.15
2018-12-11T12:49:56.048Z,97132.23
2018-12-11T12:52:25.957Z,97131.94
2018-12-11T12:54:55.856Z,97133.20
2018-12-11T12:57:25.783Z,97130.49
2018-12-11T12:59:55.725Z,97132.42
2018-12-11T13:02:25.732Z,97132.52
2018-12-11T13:04:55.791Z,97125.48
2018-12-11T13:10:10.988Z,97133.71
2018-12-11T13:12:41.173Z,97128.24
2018-12-11T13:15:11.184Z,97138.17
2018-12-11T13:17:41.086Z,97135.64
2018-12-11T13:20:11.077Z,97134.81
2018-12-11T13:22:41.068Z,97141.30
2018-12-11T13:25:11.125Z,97134.10
2018-12-11T13:27:41.059Z,97132.85
2018-12-11T13:30:11.127Z,97131.31
2018-12-11T13:32:41.088Z,97136.78
2018-12-11T13:35:11.095Z,97129.61
2018-12-11T13:37:41.014Z,97129.92
2018-12-11T13:40:12.132Z,97138.52
2018-12-11T13:42:42.035Z,97134.87
2018-12-11T13:45:12.154Z,97138.62
2018-12-11T13:47:42.089Z,97136.78
2018-12-11T13:50:12.242Z,97132.48
2018-12-11T13:52:42.257Z,97137.13
2018-12-11T13:55:12.345Z,97135.50
2018-12-11T13:57:42.280Z,97141.22
2018-12-11T14:00:12.282Z,97133.20
2018-12-11T14:02:42.200Z,97138.86
2018-12-11T14:05:12.373Z,97127.98
2018-12-11T14:07:44.029Z,97122.75
2018-12-11T14:13:03.364Z,97129.64
2018-12-11T14:15:33.462Z,97129.59
2018-12-11T14:18:06.842Z,97129.88
2018-12-11T14:20:37.141Z,97132.70
2018-12-11T14:23:08.390Z,97128.43
2018-12-11T14:25:38.309Z,97123.83
2018-12-11T14:28:08.436Z,97122.59
2018-12-11T14:30:39.187Z,97127.89
2018-12-11T14:33:09.157Z,97130.16
2018-12-11T14:35:39.236Z,97126.29
2018-12-11T14:38:09.226Z,97123.38
2018-12-11T14:40:39.165Z,97126.31
2018-12-11T14:43:09.070Z,97121.73
2018-12-11T14:45:39.320Z,97125.22
2018-12-11T14:48:10.763Z,97125.52
2018-12-11T14:50:40.969Z,97135.80
2018-12-11T14:53:10.861Z,97138.42
2018-12-11T14:55:40.799Z,97139.25
2018-12-11T14:58:10.698Z,97129.36
2018-12-11T15:00:40.653Z,97132.86
2018-12-11T15:03:13.007Z,97133.27
2018-12-11T15:05:43.093Z,97130.89
2018-12-11T15:08:13.028Z,97132.13
2018-12-11T15:10:43.046Z,97132.61
2018-12-11T15:13:12.949Z,97131.56
2018-12-11T15:15:42.918Z,97136.16
2018-12-11T15:18:12.821Z,97136.30
2018-12-11T15:20:42.781Z,97133.92
2018-12-11T15:23:12.741Z,97135.22
2018-12-11T15:25:42.686Z,97125.72
2018-12-11T15:28:12.885Z,97129.16
2018-12-11T15:30:46.156Z,97119.08
2018-12-11T15:33:16.056Z,97127.61
2018-12-11T15:35:45.991Z,97132.52
2018-12-11T15:38:15.904Z,97120.80
2018-12-11T15:40:45.847Z,97131.41
2018-12-11T15:43:16.016Z,97125.77
2018-12-11T15:45:46.056Z,97129.44
2018-12-11T15:48:16.564Z,97124.77
2018-12-11T15:50:46.617Z,97128.02
2018-12-11T15:53:16.588Z,97126.07
2018-12-11T15:55:46.530Z,97127.69
2018-12-11T15:58:24.813Z,97124.31
2018-12-11T16:00:51.825Z,97128.90
2018-12-11T16:03:21.811Z,97126.10
2018-12-11T16:05:51.889Z,97134.98
2018-12-11T16:08:21.996Z,97133.83
2018-12-11T16:10:53.380Z,97133.38
2018-12-11T16:13:23.316Z,97127.51
2018-12-11T16:15:53.375Z,97141.55
2018-12-11T16:18:23.433Z,97141.22
2018-12-11T16:20:53.491Z,97133.89
2018-12-11T16:23:23.465Z,97141.56
2018-12-11T16:25:58.186Z,97149.08
2018-12-11T16:28:28.974Z,97146.18
2018-12-11T16:30:59.012Z,97143.56
2018-12-11T16:33:28.928Z,97151.56
2018-12-11T16:35:59.117Z,97148.14
2018-12-11T16:38:29.169Z,97156.41
2018-12-11T16:40:59.445Z,97152.98
2018-12-11T16:43:29.434Z,97148.42
2018-12-11T16:45:59.604Z,97151.52
2018-12-11T16:48:29.645Z,97149.05
2018-12-11T16:50:59.621Z,97156.56
2018-12-11T16:53:29.556Z,97152.52
2018-12-11T16:55:59.581Z,97158.73
2018-12-11T16:58:29.483Z,97154.32
2018-12-11T17:00:59.595Z,97154.68
2018-12-11T17:03:29.501Z,97151.88
2018-12-11T17:05:59.432Z,97147.47
2018-12-11T17:11:14.387Z,97151.56
2018-12-11T17:13:44.904Z,97155.48
2018-12-11T17:19:00.233Z,97162.33
2018-12-11T17:21:30.206Z,97161.70
2018-12-11T17:24:00.105Z,97167.75
2018-12-11T17:26:30.122Z,97164.13
2018-12-11T17:29:00.085Z,97175.23
2018-12-11T17:31:30.048Z,97171.00
2018-12-11T17:33:59.958Z,97172.63
2018-12-11T17:36:29.937Z,97174.76
2018-12-11T17:38:59.989Z,97172.78
2018-12-11T17:41:30.005Z,97173.45
2018-12-11T17:43:59.895Z,97180.13
2018-12-11T17:46:29.850Z,97171.00
2018-12-11T17:48:59.793Z,97176.89
2018-12-11T17:51:29.854Z,97177.20
2018-12-11T17:53:59.789Z,97172.97
2018-12-11T17:56:29.743Z,97171.00
2018-12-11T17:58:59.977Z,97172.63
2018-12-11T18:04:19.789Z,97176.70
2018-12-11T18:06:49.837Z,97179.31
2018-12-11T18:09:19.822Z,97177.84
2018-12-11T18:11:49.816Z,97180.14
2018-12-11T18:14:19.884Z,97179.16
2018-12-11T18:16:50.764Z,97182.75
2018-12-11T18:19:20.665Z,97183.58
2018-12-11T18:21:50.617Z,97185.20
2018-12-11T18:24:20.537Z,97179.31
2018-12-11T18:26:50.497Z,97183.58
2018-12-11T18:29:20.477Z,97185.36
2018-12-11T18:31:54.614Z,97187.33
2018-12-11T18:34:24.877Z,97187.80
2018-12-11T18:36:55.038Z,97187.49
2018-12-11T18:39:25.026Z,97188.45
2018-12-11T18:41:54.997Z,97185.04
2018-12-11T18:44:25.049Z,97194.02
2018-12-11T18:46:55.292Z,97182.43
2018-12-11T18:49:25.335Z,97195.80
2018-12-11T18:51:55.472Z,97181.28
2018-12-11T18:54:25.495Z,97185.04
2018-12-11T18:56:55.417Z,97186.19
2018-12-11T18:59:25.343Z,97181.13
2018-12-11T19:01:55.319Z,97185.20
2018-12-11T19:04:26.759Z,97186.03
2018-12-11T19:09:41.821Z,97191.56
2018-12-11T19:12:11.818Z,97183.57
2018-12-11T19:14:41.833Z,97188.95
2018-12-11T19:17:13.045Z,97186.02
2018-12-11T19:19:43.157Z,97184.05
2018-12-11T19:22:13.117Z,97178.20
2018-12-11T19:24:48.653Z,97185.20
2018-12-11T19:27:18.645Z,97183.41
2018-12-11T19:29:48.747Z,97182.91
2018-12-11T19:32:18.869Z,97184.05
2018-12-11T19:34:51.280Z,97184.72
2018-12-11T19:37:21.298Z,97179.31
2018-12-11T19:39:51.259Z,97185.04
2018-12-11T19:42:21.456Z,97183.23
2018-12-11T19:44:51.545Z,97185.04
2018-12-11T19:47:21.736Z,97189.27
2018-12-11T19:49:51.717Z,97182.11
2018-12-11T19:52:21.681Z,97182.27
2018-12-11T19:54:51.802Z,97177.84
2018-12-11T19:57:21.814Z,97176.38
2018-12-11T19:59:51.765Z,97168.55
2018-12-11T20:02:21.849Z,97169.38
2018-12-11T20:04:51.905Z,97172.31
2018-12-11T20:07:21.865Z,97168.71
2018-12-11T20:10:28.657Z,97169.38
2018-12-11T20:12:58.931Z,97166.41
2018-12-11T20:15:28.916Z,97166.61
2018-12-11T20:17:59.016Z,97168.88
2018-12-11T20:20:31.105Z,97160.24
2018-12-11T20:23:01.254Z,97161.87
2018-12-11T20:25:31.165Z,97163.48
2018-12-11T20:28:01.161Z,97156.48
2018-12-11T20:30:31.129Z,97150.76
2018-12-11T20:33:01.227Z,97151.41
2018-12-11T20:35:31.293Z,97155.48
2018-12-11T20:38:01.325Z,97150.91
2018-12-11T20:40:31.285Z,97151.24
2018-12-11T20:43:01.916Z,97148.45
2018-12-11T20:45:31.776Z,97146.33
2018-12-11T20:48:01.841Z,97149.42
2018-12-11T20:50:31.901Z,97148.13
2018-12-11T20:53:01.842Z,97155.12
2018-12-11T20:55:31.780Z,97148.92
2018-12-11T20:58:01.731Z,97146.02
2018-12-11T21:00:34.049Z,97153.25
2018-12-11T21:03:04.169Z,97150.52
2018-12-11T21:05:34.184Z,97155.63
2018-12-11T21:08:04.360Z,97154.60
2018-12-11T21:10:34.295Z,97158.70
2018-12-11T21:13:04.300Z,97156.72
2018-12-11T21:15:34.235Z,97158.17
2018-12-11T21:18:04.584Z,97158.50
2018-12-11T21:20:34.493Z,97156.27
2018-12-11T21:23:04.538Z,97158.13
2018-12-11T21:25:34.476Z,97158.19
2018-12-11T21:28:04.377Z,97159.13
2018-12-11T21:30:34.325Z,97163.19
2018-12-11T21:33:04.632Z,97164.98
2018-12-11T21:35:34.581Z,97161.23
2018-12-11T21:38:04.697Z,97166.15
2018-12-11T21:40:34.862Z,97165.95
2018-12-11T21:43:04.849Z,97156.02
2018-12-11T21:45:34.800Z,97159.48
2018-12-11T21:48:04.708Z,97156.86
2018-12-11T21:50:34.709Z,97152.33
2018-12-11T21:53:04.685Z,97147.80
2018-12-11T21:55:34.710Z,97147.39
2018-12-11T21:58:04.783Z,97145.03
2018-12-11T22:00:34.735Z,97143.19
2018-12-11T22:03:04.661Z,97148.28
2018-12-11T22:05:34.712Z,97144.22
2018-12-11T22:08:04.597Z,97141.96
2018-12-11T22:10:34.657Z,97148.94
2018-12-11T22:13:04.609Z,97143.37
2018-12-11T22:15:34.525Z,97145.30
2018-12-11T22:18:04.497Z,97147.30
2018-12-11T22:20:34.485Z,97153.62
2018-12-11T22:23:04.374Z,97154.43
2018-12-11T22:25:34.288Z,97160.31
2018-12-11T22:28:04.192Z,97160.80
2018-12-11T22:30:34.129Z,97168.15
2018-12-11T22:33:04.077Z,97165.78
2018-12-11T22:35:33.997Z,97165.83
2018-12-11T22:38:03.971Z,97170.75
2018-12-11T22:40:35.223Z,97173.34
2018-12-11T22:43:05.203Z,97162.59
2018-12-11T22:45:35.125Z,97164.64
2018-12-11T22:50:51.375Z,97163.77
2018-12-11T22:53:22.016Z,97167.02
2018-12-11T23:00:57.147Z,97166.64
2018-12-11T23:03:37.046Z,97163.76
2018-12-11T23:06:07.584Z,97165.10
2018-12-11T23:08:37.904Z,97165.98
2018-12-11T23:11:07.888Z,97167.21
2018-12-11T23:13:38.013Z,97174.30
2018-12-11T23:16:08.400Z,97175.16
2018-12-11T23:18:38.311Z,97172.77
2018-12-11T23:21:08.228Z,97169.84
2018-12-11T23:23:38.685Z,97173.09
2018-12-11T23:26:08.604Z,97169.42
2018-12-11T23:28:38.522Z,97171.69
2018-12-11T23:31:08.518Z,97171.53
2018-12-11T23:33:38.439Z,97169.11
2018-12-11T23:36:08.418Z,97165.16
2018-12-11T23:38:39.369Z,97165.53
2018-12-11T23:41:09.461Z,97164.49
2018-12-11T23:43:39.500Z,97163.98
2018-12-11T23:46:14.085Z,97169.22
2018-12-11T23:48:44.049Z,97168.59
2018-12-11T23:51:14.011Z,97167.21
2018-12-11T23:53:43.916Z,97170.96
2018-12-11T23:56:13.840Z,97168.03
2018-12-11T23:58:44.960Z,97168.11
